createdAt,value
2023-01-26T07:29:36.281Z,56.50
2023-01-26T07:30:36.367Z,72.70
2023-01-26T07:31:36.314Z,78.70
2023-01-26T07:32:36.233Z,89.30
2023-01-26T07:33:43.821Z,94.10
2023-01-26T07:34:36.220Z,102.30
2023-01-26T07:35:36.214Z,109.30
2023-01-26T07:36:36.213Z,105.10
2023-01-26T07:37:36.200Z,95.70
2023-01-26T07:38:36.173Z,119.00
2023-01-26T07:39:36.188Z,116.90
2023-01-26T07:40:36.158Z,100.20
2023-01-26T07:41:36.137Z,101.30
2023-01-26T07:42:36.121Z,111.60
2023-01-26T07:43:36.140Z,106.80
2023-01-26T07:44:36.094Z,116.70
2023-01-26T07:45:36.101Z,126.80
2023-01-26T07:46:36.102Z,112.30
2023-01-26T07:47:36.082Z,132.10
2023-01-26T07:48:36.057Z,126.50
2023-01-26T07:49:36.076Z,139.50
2023-01-26T07:50:36.014Z,137.60
2023-01-26T07:51:36.030Z,114.70
2023-01-26T07:52:35.994Z,129.20
2023-01-26T07:53:35.965Z,110.70
2023-01-26T07:54:35.970Z,110.00
2023-01-26T07:55:35.952Z,116.60
2023-01-26T07:56:35.954Z,105.40
2023-01-26T07:57:35.940Z,126.60
2023-01-26T07:58:35.915Z,126.30
2023-01-26T07:59:35.922Z,98.10
2023-01-26T08:00:35.900Z,108.10
2023-01-26T08:01:35.942Z,101.60
2023-01-26T08:02:35.924Z,106.50
2023-01-26T08:03:35.861Z,106.80
2023-01-26T08:04:35.851Z,109.80
2023-01-26T08:05:35.833Z,108.50
2023-01-26T08:06:35.798Z,107.50
2023-01-26T08:07:35.805Z,113.60
2023-01-26T08:08:35.784Z,122.00
2023-01-26T08:09:35.798Z,110.50
2023-01-26T08:10:35.755Z,122.70
2023-01-26T08:11:35.758Z,111.80
2023-01-26T08:12:39.477Z,106.20
2023-01-26T08:13:36.918Z,107.80
2023-01-26T08:14:46.394Z,112.00
2023-01-26T08:15:36.695Z,106.70
2023-01-26T08:16:35.737Z,104.90
2023-01-26T08:17:35.688Z,107.10
2023-01-26T08:18:35.681Z,102.80
2023-01-26T08:19:35.641Z,109.40
2023-01-26T08:20:35.624Z,104.60
2023-01-26T08:21:35.654Z,104.70
2023-01-26T08:22:50.350Z,102.20
2023-01-26T08:23:35.584Z,125.00
2023-01-26T08:24:35.592Z,119.40
2023-01-26T08:25:35.557Z,112.80
2023-01-26T08:26:35.540Z,124.20
2023-01-26T08:27:35.558Z,120.40
2023-01-26T08:28:35.540Z,121.00
2023-01-26T08:29:35.511Z,121.30
2023-01-26T08:30:35.505Z,135.50
2023-01-26T08:31:35.544Z,130.30
2023-01-26T08:32:35.474Z,124.30
2023-01-26T08:33:35.466Z,131.40
2023-01-26T08:34:35.433Z,127.80
2023-01-26T08:35:35.450Z,128.80
2023-01-26T08:36:35.444Z,142.40
2023-01-26T08:37:35.440Z,122.10
2023-01-26T08:38:35.393Z,138.80
2023-01-26T08:39:35.389Z,145.30
2023-01-26T08:40:35.362Z,150.50
2023-01-26T08:41:35.372Z,126.10
2023-01-26T08:42:35.382Z,124.50
2023-01-26T08:43:35.320Z,140.20
2023-01-26T08:44:35.301Z,170.40
2023-01-26T08:45:35.381Z,143.80
2023-01-26T08:46:35.293Z,142.70
2023-01-26T08:47:35.286Z,129.90
2023-01-26T08:48:35.281Z,137.60
2023-01-26T08:49:35.249Z,138.30
2023-01-26T08:50:35.233Z,157.80
2023-01-26T08:51:35.235Z,163.50
2023-01-26T08:52:35.202Z,150.20
2023-01-26T08:53:35.225Z,140.00
2023-01-26T08:54:35.190Z,139.50
2023-01-26T08:55:35.196Z,132.40
2023-01-26T08:56:35.155Z,152.40
2023-01-26T08:57:35.172Z,154.00
2023-01-26T08:58:35.118Z,134.20
2023-01-26T08:59:35.114Z,139.30
2023-01-26T09:00:35.101Z,169.00
2023-01-26T09:01:35.082Z,169.10
2023-01-26T09:02:35.175Z,160.90
2023-01-26T09:03:35.102Z,164.60
2023-01-26T09:04:35.063Z,149.60
2023-01-26T09:05:35.042Z,134.80
2023-01-26T09:06:35.045Z,148.40
2023-01-26T09:07:35.004Z,145.80
2023-01-26T09:08:35.014Z,132.10
2023-01-26T09:09:34.980Z,154.90
2023-01-26T09:10:34.975Z,123.30
2023-01-26T09:11:34.974Z,123.00
2023-01-26T09:12:34.973Z,124.60
2023-01-26T09:13:34.925Z,131.60
2023-01-26T09:14:34.937Z,105.30
2023-01-26T09:15:34.904Z,106.70
2023-01-26T09:16:34.948Z,89.20
2023-01-26T09:17:34.892Z,97.70
2023-01-26T09:18:34.887Z,106.70
2023-01-26T09:19:34.877Z,91.70
2023-01-26T09:20:34.843Z,96.40
2023-01-26T09:21:34.831Z,93.80
2023-01-26T09:22:34.826Z,85.90
2023-01-26T09:23:34.804Z,96.60
2023-01-26T09:24:34.803Z,80.20
2023-01-26T09:25:34.763Z,76.60
2023-01-26T09:26:34.794Z,80.20
2023-01-26T09:27:34.786Z,68.70
2023-01-26T09:28:34.759Z,67.70
2023-01-26T09:29:34.725Z,73.40
2023-01-26T09:30:34.891Z,76.80
2023-01-26T09:31:34.791Z,75.30
2023-01-26T09:32:34.708Z,71.90
2023-01-26T09:33:34.700Z,91.30
2023-01-26T09:34:34.672Z,86.90
2023-01-26T09:35:34.648Z,78.80
2023-01-26T09:36:34.653Z,69.70
2023-01-26T09:37:34.632Z,75.20
2023-01-26T09:38:34.607Z,76.80
2023-01-26T09:39:34.620Z,72.20
2023-01-26T09:40:34.587Z,75.00
2023-01-26T09:41:34.597Z,66.50
2023-01-26T09:42:34.557Z,79.70
2023-01-26T09:43:34.547Z,70.80
2023-01-26T09:44:34.527Z,82.90
2023-01-26T09:45:34.548Z,73.80
2023-01-26T09:46:34.565Z,76.10
2023-01-26T09:47:34.508Z,60.20
2023-01-26T09:48:34.484Z,63.30
2023-01-26T09:49:34.461Z,61.90
2023-01-26T09:50:34.443Z,72.70
2023-01-26T09:51:34.419Z,72.10
2023-01-26T09:52:34.506Z,67.30
2023-01-26T09:53:34.424Z,64.00
2023-01-26T09:54:34.388Z,55.60
2023-01-26T09:55:34.384Z,62.00
2023-01-26T09:56:34.431Z,68.00
2023-01-26T09:57:34.381Z,56.70
2023-01-26T09:58:34.348Z,64.80
2023-01-26T09:59:34.351Z,69.20
2023-01-26T10:00:34.326Z,65.80
2023-01-26T10:01:34.353Z,57.80
2023-01-26T10:02:34.353Z,66.70
2023-01-26T10:03:34.283Z,67.20
2023-01-26T10:04:34.299Z,71.60
2023-01-26T10:05:34.238Z,71.00
2023-01-26T10:06:34.256Z,62.40
2023-01-26T10:07:34.234Z,62.60
2023-01-26T10:08:34.227Z,64.70
2023-01-26T10:09:34.179Z,69.90
2023-01-26T10:10:34.181Z,61.60
2023-01-26T10:11:34.147Z,71.00
2023-01-26T10:12:34.217Z,73.40
2023-01-26T10:13:34.141Z,89.70
2023-01-26T10:14:34.196Z,66.40
2023-01-26T10:15:34.142Z,64.20
2023-01-26T10:16:34.108Z,72.50
2023-01-26T10:17:34.111Z,63.40
2023-01-26T10:18:34.092Z,63.70
2023-01-26T10:19:34.087Z,59.60
2023-01-26T10:20:34.071Z,69.30
2023-01-26T10:21:34.103Z,72.40
2023-01-26T10:22:34.033Z,69.70
2023-01-26T10:23:34.039Z,73.60
2023-01-26T10:24:33.984Z,55.90
2023-01-26T10:25:34.004Z,52.80
2023-01-26T10:26:34.036Z,52.60
2023-01-26T10:27:33.955Z,48.50
2023-01-26T10:28:33.954Z,50.50
2023-01-26T10:29:33.945Z,56.30
2023-01-26T10:30:33.958Z,79.90
2023-01-26T10:31:33.947Z,71.30
2023-01-26T10:32:33.934Z,49.10
2023-01-26T10:33:33.881Z,55.00
2023-01-26T10:34:33.890Z,72.60
2023-01-26T10:35:33.864Z,48.70
2023-01-26T10:36:33.866Z,57.60
2023-01-26T10:37:33.825Z,53.90
2023-01-26T10:38:33.836Z,47.20
2023-01-26T10:39:33.828Z,41.40
2023-01-26T10:40:33.800Z,40.90
2023-01-26T10:41:33.794Z,44.20
2023-01-26T10:42:33.776Z,40.90
2023-01-26T10:43:33.769Z,47.60
2023-01-26T10:44:33.744Z,49.70
2023-01-26T10:45:33.713Z,60.70
2023-01-26T10:46:33.781Z,45.60
2023-01-26T10:47:33.714Z,56.90
2023-01-26T10:48:33.681Z,51.40
2023-01-26T10:49:33.692Z,35.40
2023-01-26T10:50:33.692Z,40.30
2023-01-26T10:51:33.669Z,38.50
2023-01-26T10:52:33.620Z,42.00
2023-01-26T10:53:33.609Z,48.00
2023-01-26T10:54:33.595Z,42.50
2023-01-26T10:55:33.595Z,38.70
2023-01-26T10:56:33.593Z,58.30
2023-01-26T10:57:33.556Z,45.80
2023-01-26T10:58:34.128Z,46.10
2023-01-26T10:59:33.533Z,45.90
2023-01-26T11:00:33.559Z,43.80
2023-01-26T11:01:33.550Z,37.30
2023-01-26T11:02:33.549Z,35.80
2023-01-26T11:03:33.474Z,31.70
2023-01-26T11:04:33.464Z,39.20
2023-01-26T11:05:33.453Z,44.20
2023-01-26T11:06:33.450Z,39.20
2023-01-26T11:07:33.426Z,33.90
2023-01-26T11:08:33.403Z,40.60
2023-01-26T11:09:33.397Z,40.30
2023-01-26T11:10:33.402Z,41.90
2023-01-26T11:11:33.376Z,39.60
2023-01-26T11:12:33.360Z,42.00
2023-01-26T11:13:33.365Z,45.60
2023-01-26T11:14:33.331Z,45.00
2023-01-26T11:15:33.321Z,53.90
2023-01-26T11:16:33.346Z,55.20
2023-01-26T11:17:33.285Z,53.10
2023-01-26T11:18:33.307Z,54.80
2023-01-26T11:19:33.284Z,50.50
2023-01-26T11:20:33.321Z,45.30
2023-01-26T11:21:33.243Z,37.30
2023-01-26T11:22:33.221Z,48.00
2023-01-26T11:23:33.209Z,42.00
2023-01-26T11:24:33.184Z,46.70
2023-01-26T11:25:33.177Z,37.90
2023-01-26T11:26:33.175Z,41.80
2023-01-26T11:27:33.148Z,47.80
2023-01-26T11:28:33.138Z,40.40
2023-01-26T11:29:33.134Z,46.60
2023-01-26T11:30:33.190Z,51.90
2023-01-26T11:31:33.189Z,48.60
2023-01-26T11:32:33.149Z,42.50
2023-01-26T11:33:33.058Z,49.60
2023-01-26T11:34:33.063Z,53.60
2023-01-26T11:35:33.033Z,37.50
2023-01-26T11:36:41.777Z,44.50
2023-01-26T11:37:42.053Z,44.70
2023-01-26T11:38:43.140Z,38.30
2023-01-26T11:39:33.013Z,44.90
2023-01-26T11:40:32.990Z,40.80
2023-01-26T11:41:33.017Z,40.40
2023-01-26T11:42:33.007Z,40.00
2023-01-26T11:43:32.963Z,40.60
2023-01-26T11:44:32.936Z,63.90
2023-01-26T11:45:32.967Z,46.40
2023-01-26T11:46:32.926Z,63.70
2023-01-26T11:47:32.879Z,48.00
2023-01-26T11:48:32.908Z,55.80
2023-01-26T11:49:32.861Z,46.50
2023-01-26T11:50:32.853Z,61.30
2023-01-26T11:51:32.836Z,48.80
2023-01-26T11:52:32.836Z,44.00
2023-01-26T11:53:32.848Z,49.80
2023-01-26T11:54:32.814Z,50.70
2023-01-26T11:55:32.796Z,48.70
2023-01-26T11:56:32.761Z,43.80
2023-01-26T11:57:32.778Z,63.80
2023-01-26T11:58:32.805Z,49.90
2023-01-26T11:59:32.747Z,47.80
2023-01-26T12:00:32.724Z,44.20
2023-01-26T12:01:32.751Z,44.50
2023-01-26T12:02:32.799Z,38.60
2023-01-26T12:03:32.748Z,55.40
2023-01-26T12:04:32.677Z,42.70
2023-01-26T12:05:32.653Z,45.90
2023-01-26T12:06:32.667Z,49.90
2023-01-26T12:07:32.628Z,42.90
2023-01-26T12:08:32.623Z,56.10
2023-01-26T12:09:41.783Z,55.00
2023-01-26T12:10:32.616Z,42.40
2023-01-26T12:11:32.564Z,49.00
2023-01-26T12:12:32.567Z,32.70
2023-01-26T12:13:32.535Z,33.80
2023-01-26T12:14:32.544Z,44.20
2023-01-26T12:15:32.512Z,43.60
2023-01-26T12:16:32.552Z,51.80
2023-01-26T12:17:32.496Z,40.70
2023-01-26T12:18:48.952Z,36.40
2023-01-26T12:19:33.475Z,41.70
2023-01-26T12:20:32.439Z,34.90
2023-01-26T12:21:32.429Z,52.90
2023-01-26T12:22:34.236Z,44.90
2023-01-26T12:23:32.407Z,35.20
2023-01-26T12:25:01.104Z,43.90
2023-01-26T12:25:34.028Z,34.50
2023-01-26T12:26:32.406Z,43.00
2023-01-26T12:27:32.378Z,35.90
2023-01-26T12:28:32.347Z,36.40
2023-01-26T12:29:32.335Z,36.40
2023-01-26T12:30:33.162Z,39.50
2023-01-26T12:31:32.428Z,41.30
2023-01-26T12:32:32.288Z,45.00
2023-01-26T12:33:32.278Z,36.70
2023-01-26T12:34:33.645Z,51.10
2023-01-26T12:35:32.241Z,48.60
2023-01-26T12:36:32.272Z,43.10
2023-01-26T12:37:32.227Z,45.90
2023-01-26T12:38:32.216Z,31.10
2023-01-26T12:39:32.191Z,40.00
2023-01-26T12:40:32.327Z,35.90
2023-01-26T12:41:32.190Z,36.60
2023-01-26T12:42:32.167Z,36.90
2023-01-26T12:43:32.156Z,35.20
2023-01-26T12:44:32.134Z,41.50
2023-01-26T12:45:32.129Z,35.50
2023-01-26T12:46:32.208Z,33.60
2023-01-26T12:47:32.135Z,32.40
2023-01-26T12:48:32.078Z,34.30
2023-01-26T12:49:32.115Z,39.00
2023-01-26T12:50:32.077Z,38.80
2023-01-26T12:51:32.067Z,42.10
2023-01-26T12:52:32.070Z,41.50
2023-01-26T12:53:32.022Z,38.40
2023-01-26T12:54:32.002Z,41.90
2023-01-26T12:55:32.016Z,41.50
2023-01-26T12:56:31.994Z,39.70
2023-01-26T12:57:31.994Z,44.70
2023-01-26T12:58:32.009Z,47.30
2023-01-26T12:59:39.506Z,48.40
2023-01-26T13:00:32.922Z,60.40
2023-01-26T13:01:31.977Z,43.20
2023-01-26T13:02:31.967Z,47.70
2023-01-26T13:03:31.897Z,46.50
2023-01-26T13:04:31.866Z,42.20
2023-01-26T13:05:31.861Z,53.60
2023-01-26T13:06:31.905Z,50.60
2023-01-26T13:07:31.841Z,60.10
2023-01-26T13:08:31.867Z,62.00
2023-01-26T13:09:31.823Z,56.40
2023-01-26T13:10:31.781Z,54.60
2023-01-26T13:11:31.777Z,53.20
2023-01-26T13:12:31.777Z,53.70
2023-01-26T13:13:31.790Z,60.20
2023-01-26T13:14:31.734Z,57.90
2023-01-26T13:15:31.819Z,56.90
2023-01-26T13:16:31.721Z,50.80
2023-01-26T13:17:31.712Z,78.50
2023-01-26T13:18:31.666Z,79.70
2023-01-26T13:19:31.691Z,57.40
2023-01-26T13:20:31.667Z,83.90
2023-01-26T13:21:31.658Z,61.50
2023-01-26T13:22:31.618Z,55.60
2023-01-26T13:23:31.631Z,55.30
2023-01-26T13:24:31.917Z,72.90
2023-01-26T13:25:31.595Z,85.20
2023-01-26T13:26:31.588Z,52.60
2023-01-26T13:27:31.578Z,68.20
2023-01-26T13:28:31.544Z,78.80
2023-01-26T13:29:31.566Z,79.30
2023-01-26T13:30:31.588Z,83.90
2023-01-26T13:31:31.531Z,76.80
2023-01-26T13:32:31.509Z,102.90
2023-01-26T13:33:39.002Z,94.60
2023-01-26T13:34:31.471Z,87.30
2023-01-26T13:35:31.471Z,112.00
2023-01-26T13:36:31.440Z,78.40
2023-01-26T13:37:31.420Z,92.10
2023-01-26T13:38:31.482Z,76.80
2023-01-26T13:39:31.396Z,80.20
2023-01-26T13:40:31.568Z,85.00
2023-01-26T13:41:31.374Z,110.70
2023-01-26T13:42:31.362Z,135.90
2023-01-26T13:43:31.363Z,143.50
2023-01-26T13:44:31.346Z,127.80
2023-01-26T13:45:31.351Z,104.10
2023-01-26T13:46:31.348Z,86.40
2023-01-26T13:47:31.293Z,107.90
2023-01-26T13:48:32.612Z,107.70
2023-01-26T13:49:31.289Z,127.60
2023-01-26T13:50:31.288Z,95.10
2023-01-26T13:51:31.258Z,96.20
2023-01-26T13:52:31.234Z,87.60
2023-01-26T13:53:31.218Z,91.20
2023-01-26T13:54:31.210Z,90.70
2023-01-26T13:55:31.233Z,95.60
2023-01-26T13:56:31.179Z,103.10
2023-01-26T13:57:31.181Z,100.60
2023-01-26T13:58:31.163Z,94.20
2023-01-26T13:59:31.149Z,112.80
2023-01-26T14:00:31.132Z,99.20
2023-01-26T14:01:31.973Z,93.40
2023-01-26T14:02:31.181Z,103.70
2023-01-26T14:03:31.109Z,90.40
2023-01-26T14:04:33.892Z,139.10
2023-01-26T14:05:31.127Z,124.60
2023-01-26T14:06:31.126Z,108.40
2023-01-26T14:07:31.049Z,100.20
2023-01-26T14:08:31.091Z,111.60
2023-01-26T14:09:31.011Z,94.70
2023-01-26T14:10:31.008Z,153.40
2023-01-26T14:11:31.013Z,96.60
2023-01-26T14:12:31.035Z,135.50
2023-01-26T14:13:30.973Z,113.20
2023-01-26T14:14:30.961Z,139.00
2023-01-26T14:15:30.966Z,124.30
2023-01-26T14:16:30.926Z,98.00
2023-01-26T14:17:30.936Z,89.10
2023-01-26T14:18:30.904Z,102.20
2023-01-26T14:19:30.867Z,96.40
2023-01-26T14:20:30.831Z,112.40
2023-01-26T14:21:30.830Z,95.50
2023-01-26T14:22:30.877Z,96.00
2023-01-26T14:23:30.803Z,89.20
2023-01-26T14:24:30.799Z,85.00
2023-01-26T14:25:30.782Z,88.60
2023-01-26T14:26:30.759Z,115.60
2023-01-26T14:27:30.772Z,82.30
2023-01-26T14:28:30.756Z,82.10
2023-01-26T14:29:40.912Z,85.40
2023-01-26T14:30:30.792Z,75.40
2023-01-26T14:31:30.784Z,84.30
2023-01-26T14:32:30.696Z,111.50
2023-01-26T14:33:30.721Z,99.20
2023-01-26T14:34:30.681Z,76.00
2023-01-26T14:35:30.669Z,64.30
2023-01-26T14:36:30.649Z,65.10
2023-01-26T14:37:30.627Z,64.70
2023-01-26T14:38:30.632Z,59.70
2023-01-26T14:39:30.607Z,70.40
2023-01-26T14:40:30.597Z,68.70
2023-01-26T14:41:30.610Z,64.50
2023-01-26T14:42:30.595Z,63.20
2023-01-26T14:43:30.574Z,65.70
2023-01-26T14:44:30.566Z,67.50
2023-01-26T14:45:30.521Z,58.90
2023-01-26T14:46:30.545Z,64.70
2023-01-26T14:47:30.490Z,66.00
2023-01-26T14:48:30.481Z,61.40
2023-01-26T14:49:30.475Z,67.60
2023-01-26T14:50:30.469Z,67.90
2023-01-26T14:51:30.447Z,69.80
2023-01-26T14:52:30.446Z,72.10
2023-01-26T14:53:30.408Z,68.70
2023-01-26T14:54:30.413Z,64.40
2023-01-26T14:55:30.401Z,72.20
2023-01-26T14:56:30.389Z,65.70
2023-01-26T14:57:30.396Z,60.80
2023-01-26T14:58:30.362Z,66.40
2023-01-26T14:59:30.340Z,66.20
2023-01-26T15:00:30.389Z,67.70
2023-01-26T15:01:30.323Z,68.00
2023-01-26T15:02:30.305Z,66.80
2023-01-26T15:03:30.304Z,67.60
2023-01-26T15:04:30.272Z,64.20
2023-01-26T15:05:30.256Z,75.40
2023-01-26T15:06:30.261Z,65.70
2023-01-26T15:07:30.244Z,66.20
2023-01-26T15:08:30.256Z,70.50
2023-01-26T15:09:30.213Z,67.80
2023-01-26T15:10:30.199Z,69.30
2023-01-26T15:11:30.228Z,73.10
2023-01-26T15:12:30.171Z,81.20
2023-01-26T15:13:30.174Z,74.60
2023-01-26T15:14:30.133Z,73.40
2023-01-26T15:15:30.127Z,77.60
2023-01-26T15:16:30.178Z,68.00
2023-01-26T15:17:30.114Z,85.60
2023-01-26T15:18:30.095Z,83.90
2023-01-26T15:19:30.080Z,91.30
2023-01-26T15:20:30.054Z,87.60
2023-01-26T15:21:30.051Z,72.90
2023-01-26T15:22:30.055Z,75.90
2023-01-26T15:23:30.025Z,69.80
2023-01-26T15:24:30.013Z,93.10
2023-01-26T15:25:30.048Z,84.00
2023-01-26T15:26:29.995Z,64.00
2023-01-26T15:27:30.031Z,69.60
2023-01-26T15:28:29.974Z,66.10
2023-01-26T15:29:29.953Z,67.20
2023-01-26T15:30:30.030Z,137.10
2023-01-26T15:31:29.944Z,90.70
2023-01-26T15:32:29.897Z,130.30
2023-01-26T15:33:31.656Z,71.80
2023-01-26T15:34:29.896Z,70.80
2023-01-26T15:35:29.868Z,76.00
2023-01-26T15:36:29.869Z,86.70
2023-01-26T15:37:29.890Z,74.00
2023-01-26T15:38:29.839Z,70.90
2023-01-26T15:39:29.806Z,74.70
2023-01-26T15:40:29.778Z,75.80
2023-01-26T15:41:29.793Z,81.30
2023-01-26T15:42:29.795Z,76.20
2023-01-26T15:43:29.785Z,100.40
2023-01-26T15:44:29.747Z,82.10
2023-01-26T15:45:29.746Z,77.50
2023-01-26T15:46:29.815Z,177.50
2023-01-26T15:47:29.727Z,166.80
2023-01-26T15:48:29.679Z,97.60
2023-01-26T15:49:29.679Z,101.20
2023-01-26T15:50:29.712Z,125.50
2023-01-26T15:51:29.659Z,119.50
2023-01-26T15:52:29.648Z,113.80
2023-01-26T15:53:29.659Z,117.60
2023-01-26T15:54:29.611Z,128.70
2023-01-26T15:55:29.601Z,118.00
2023-01-26T15:56:29.587Z,132.30
2023-01-26T15:57:31.551Z,92.90
2023-01-26T15:58:29.560Z,112.40
2023-01-26T15:59:29.556Z,77.40
2023-01-26T16:00:29.519Z,104.10
2023-01-26T16:01:29.558Z,182.80
2023-01-26T16:02:29.574Z,126.00
2023-01-26T16:03:29.514Z,118.40
2023-01-26T16:04:29.495Z,125.90
2023-01-26T16:05:29.502Z,132.50
2023-01-26T16:06:29.450Z,117.30
2023-01-26T16:07:29.458Z,92.20
2023-01-26T16:08:29.457Z,85.20
2023-01-26T16:09:29.467Z,159.80
2023-01-26T16:10:29.414Z,161.30
2023-01-26T16:11:29.387Z,208.50
2023-01-26T16:12:32.082Z,166.70
2023-01-26T16:13:29.359Z,160.30
2023-01-26T16:14:29.344Z,82.20
2023-01-26T16:15:29.393Z,180.30
2023-01-26T16:16:29.364Z,182.70
2023-01-26T16:17:29.333Z,157.60
2023-01-26T16:18:29.299Z,139.70
2023-01-26T16:19:35.321Z,160.30
2023-01-26T16:20:30.305Z,150.80
2023-01-26T16:21:29.282Z,169.40
2023-01-26T16:22:29.283Z,154.20
2023-01-26T16:23:29.247Z,172.70
2023-01-26T16:24:29.258Z,158.80
2023-01-26T16:25:29.189Z,94.60
2023-01-26T16:26:29.186Z,189.30
2023-01-26T16:27:29.191Z,131.40
2023-01-26T16:28:29.163Z,108.40
2023-01-26T16:29:29.163Z,173.50
2023-01-26T16:30:29.135Z,206.60
2023-01-26T16:31:29.303Z,197.30
2023-01-26T16:32:29.096Z,167.50
2023-01-26T16:33:29.105Z,169.80
2023-01-26T16:34:29.077Z,165.80
2023-01-26T16:35:29.080Z,234.40
2023-01-26T16:36:29.046Z,235.80
2023-01-26T16:37:29.050Z,101.70
2023-01-26T16:38:29.025Z,91.90
2023-01-26T16:39:29.057Z,91.30
2023-01-26T16:40:29.002Z,171.70
2023-01-26T16:41:28.995Z,177.20
2023-01-26T16:42:28.991Z,80.00
2023-01-26T16:43:28.961Z,83.10
2023-01-26T16:44:28.947Z,82.50
2023-01-26T16:45:28.974Z,154.20
2023-01-26T16:46:28.926Z,166.20
2023-01-26T16:47:28.911Z,97.80
2023-01-26T16:48:28.903Z,65.30
2023-01-26T16:49:28.931Z,174.30
2023-01-26T16:50:31.299Z,153.80
2023-01-26T16:51:28.847Z,228.30
2023-01-26T16:52:28.837Z,104.10
2023-01-26T16:53:28.840Z,200.30
2023-01-26T16:54:28.816Z,147.50
2023-01-26T16:55:28.827Z,168.10
2023-01-26T16:56:28.822Z,97.50
2023-01-26T16:57:28.820Z,76.10
2023-01-26T16:58:28.782Z,80.00
2023-01-26T16:59:28.735Z,192.70
2023-01-26T17:00:28.728Z,229.50
2023-01-26T17:01:28.779Z,162.50
2023-01-26T17:02:28.747Z,145.00
2023-01-26T17:03:28.722Z,178.90
2023-01-26T17:04:28.705Z,196.10
2023-01-26T17:05:31.048Z,182.40
2023-01-26T17:06:28.660Z,138.70
2023-01-26T17:07:28.631Z,141.50
2023-01-26T17:08:28.639Z,91.60
2023-01-26T17:09:28.635Z,88.10
2023-01-26T17:10:35.311Z,136.60
2023-01-26T17:11:28.595Z,238.70
2023-01-26T17:12:28.580Z,130.30
2023-01-26T17:13:28.576Z,115.60
2023-01-26T17:14:28.591Z,122.90
2023-01-26T17:15:28.579Z,168.20
2023-01-26T17:16:28.579Z,167.20
2023-01-26T17:17:28.537Z,115.10
2023-01-26T17:18:28.493Z,101.80
2023-01-26T17:19:28.486Z,87.00
2023-01-26T17:20:28.462Z,98.10
2023-01-26T17:21:28.470Z,85.70
2023-01-26T17:22:28.440Z,79.10
2023-01-26T17:23:28.408Z,87.00
2023-01-26T17:24:28.537Z,120.00
2023-01-26T17:25:28.433Z,173.50
2023-01-26T17:26:28.397Z,167.70
2023-01-26T17:27:28.372Z,193.30
2023-01-26T17:28:28.346Z,168.60
2023-01-26T17:29:28.369Z,167.70
2023-01-26T17:30:28.397Z,162.60
2023-01-26T17:31:28.351Z,196.00
2023-01-26T17:32:28.325Z,208.00
2023-01-26T17:33:28.329Z,171.30
2023-01-26T17:34:28.269Z,152.80
2023-01-26T17:35:28.256Z,136.40
2023-01-26T17:36:28.247Z,197.50
2023-01-26T17:37:28.243Z,200.30
2023-01-26T17:38:28.219Z,163.50
2023-01-26T17:39:28.246Z,180.70
2023-01-26T17:40:28.220Z,190.80
2023-01-26T17:41:28.192Z,154.40
2023-01-26T17:42:28.192Z,156.20
2023-01-26T17:43:28.149Z,172.50
2023-01-26T17:44:28.166Z,217.90
2023-01-26T17:45:28.174Z,111.30
2023-01-26T17:46:28.120Z,118.70
2023-01-26T17:47:28.103Z,156.90
2023-01-26T17:48:28.106Z,87.20
2023-01-26T17:49:28.079Z,88.90
2023-01-26T17:50:28.091Z,197.10
2023-01-26T17:51:28.043Z,189.10
2023-01-26T17:52:28.035Z,78.90
2023-01-26T17:53:28.108Z,88.10
2023-01-26T17:54:28.008Z,90.90
2023-01-26T17:55:28.016Z,89.80
2023-01-26T17:56:27.987Z,129.90
2023-01-26T17:57:27.970Z,121.80
2023-01-26T17:58:27.985Z,82.80
2023-01-26T17:59:27.958Z,160.90
2023-01-26T18:00:27.933Z,82.70
2023-01-26T18:01:28.050Z,181.50
2023-01-26T18:02:27.930Z,164.30
2023-01-26T18:03:27.878Z,129.10
2023-01-26T18:04:28.796Z,104.70
2023-01-26T18:05:27.860Z,145.30
2023-01-26T18:06:27.834Z,135.40
2023-01-26T18:07:27.864Z,175.00
2023-01-26T18:08:27.855Z,68.90
2023-01-26T18:09:27.808Z,157.80
2023-01-26T18:10:27.811Z,158.60
2023-01-26T18:11:27.814Z,128.00
2023-01-26T18:12:27.767Z,117.40
2023-01-26T18:13:27.763Z,209.00
2023-01-26T18:14:27.752Z,116.20
2023-01-26T18:15:27.791Z,151.00
2023-01-26T18:16:27.747Z,92.40
2023-01-26T18:17:27.728Z,150.30
2023-01-26T18:18:27.694Z,84.30
2023-01-26T18:19:27.756Z,151.40
2023-01-26T18:20:27.686Z,144.20
2023-01-26T18:21:27.660Z,155.40
2023-01-26T18:22:27.663Z,131.60
2023-01-26T18:23:27.640Z,107.70
2023-01-26T18:24:27.637Z,97.80
2023-01-26T18:25:27.602Z,147.20
2023-01-26T18:26:27.611Z,116.20
2023-01-26T18:27:27.689Z,79.40
2023-01-26T18:28:27.585Z,161.50
2023-01-26T18:29:27.573Z,94.40
2023-01-26T18:30:27.613Z,77.80
2023-01-26T18:31:27.597Z,70.30
2023-01-26T18:32:27.508Z,93.50
2023-01-26T18:33:27.531Z,153.10
2023-01-26T18:34:27.510Z,94.70
2023-01-26T18:35:27.453Z,72.30
2023-01-26T18:36:27.466Z,102.50
2023-01-26T18:37:27.442Z,82.90
2023-01-26T18:38:27.458Z,74.40
2023-01-26T18:39:27.419Z,71.60
2023-01-26T18:40:27.445Z,75.90
2023-01-26T18:41:27.374Z,93.90
2023-01-26T18:42:27.402Z,68.80
2023-01-26T18:43:27.361Z,82.10
2023-01-26T18:44:27.507Z,76.20
2023-01-26T18:45:27.334Z,143.50
2023-01-26T18:46:27.317Z,74.70
2023-01-26T18:47:27.327Z,69.90
2023-01-26T18:48:27.304Z,71.90
2023-01-26T18:49:27.290Z,99.10
2023-01-26T18:50:27.266Z,90.00
2023-01-26T18:51:27.253Z,72.50
2023-01-26T18:52:29.052Z,81.30
2023-01-26T18:53:27.233Z,114.10
2023-01-26T18:54:27.226Z,83.10
2023-01-26T18:55:28.417Z,73.70
2023-01-26T18:56:27.219Z,81.90
2023-01-26T18:57:27.197Z,89.00
2023-01-26T18:58:27.148Z,77.80
2023-01-26T18:59:27.159Z,71.80
2023-01-26T19:00:27.157Z,90.50
2023-01-26T19:01:27.188Z,64.50
2023-01-26T19:02:27.199Z,65.60
2023-01-26T19:03:27.133Z,63.50
2023-01-26T19:04:27.084Z,54.80
2023-01-26T19:05:27.090Z,59.60
2023-01-26T19:06:27.067Z,59.70
2023-01-26T19:07:27.034Z,55.30
2023-01-26T19:08:27.047Z,55.70
2023-01-26T19:09:27.024Z,50.90
2023-01-26T19:10:27.023Z,56.40
2023-01-26T19:11:27.021Z,53.70
2023-01-26T19:12:26.976Z,46.80
2023-01-26T19:13:26.961Z,50.80
2023-01-26T19:14:26.958Z,51.10
2023-01-26T19:15:26.934Z,48.40
2023-01-26T19:16:27.031Z,43.10
2023-01-26T19:17:26.914Z,44.50
2023-01-26T19:18:26.908Z,46.30
2023-01-26T19:19:26.869Z,55.00
2023-01-26T19:20:26.880Z,50.10
2023-01-26T19:21:26.865Z,45.80
2023-01-26T19:22:26.895Z,68.20
2023-01-26T19:23:26.848Z,49.70
2023-01-26T19:24:26.922Z,49.00
2023-01-26T19:25:26.794Z,52.00
2023-01-26T19:26:26.776Z,45.70
2023-01-26T19:27:26.782Z,46.10
2023-01-26T19:28:26.780Z,47.60
2023-01-26T19:29:26.756Z,46.20
2023-01-26T19:30:29.461Z,44.10
2023-01-26T19:31:26.816Z,39.30
2023-01-26T19:32:26.706Z,49.20
2023-01-26T19:33:26.711Z,43.80
2023-01-26T19:34:26.691Z,43.00
2023-01-26T19:35:26.662Z,38.10
2023-01-26T19:36:26.650Z,35.50
2023-01-26T19:37:26.625Z,36.00
2023-01-26T19:38:26.617Z,35.20
2023-01-26T19:39:36.365Z,39.00
2023-01-26T19:40:27.111Z,37.80
2023-01-26T19:41:26.750Z,35.70
2023-01-26T19:42:26.575Z,40.60
2023-01-26T19:43:26.549Z,30.00
2023-01-26T19:44:26.601Z,26.20
2023-01-26T19:45:26.539Z,31.10
2023-01-26T19:46:26.573Z,26.30
2023-01-26T19:47:26.527Z,29.30
2023-01-26T19:48:26.505Z,26.40
2023-01-26T19:49:26.518Z,21.50
2023-01-26T19:50:26.530Z,25.00
2023-01-26T19:51:26.493Z,22.30
2023-01-26T19:53:53.073Z,22.70
2023-01-26T19:54:53.017Z,20.60
2023-01-26T19:55:52.966Z,17.40
2023-01-26T19:56:52.944Z,19.30
2023-01-26T19:57:53.006Z,16.50
2023-01-26T19:59:07.654Z,22.80
2023-01-26T19:59:52.908Z,15.60
2023-01-26T20:00:52.885Z,16.00
2023-01-26T20:01:52.841Z,15.30
2023-01-26T20:02:52.808Z,16.30
2023-01-26T20:03:52.818Z,14.30
2023-01-26T20:04:52.767Z,15.10
2023-01-26T20:05:52.785Z,14.90
2023-01-26T20:06:52.887Z,13.80
2023-01-26T20:07:53.764Z,12.20
2023-01-26T20:08:52.736Z,11.90
2023-01-26T20:09:52.723Z,13.00
2023-01-26T20:10:52.698Z,13.50
2023-01-26T20:11:52.715Z,12.60
2023-01-26T20:12:52.687Z,13.30
2023-01-26T20:13:52.671Z,13.20
2023-01-26T20:14:52.663Z,10.50